Flight Track Log - Related Links

Times and Time Zones

All times are in EDT time to prevent confusion due to time zone crossing. See the LOF3416 flight status page for this flight to view local times or setup timezone preferences in your user account.

Time Position Orientation Groundspeed Altitude Reporting Facility
EDT Latitude Longitude Course Direction KTS MPH feet Rate Location/Type
Sat 03:11:07 PM 37.3772 -93.1700 35° Northeast 260 299 8,700  Level Kansas City Center
Sat 03:12:09 PM 37.4419 -93.1136 35° Northeast 278 320 10,000 1,210 Climbing Kansas City Center
Sat 03:13:11 PM 37.5144 -93.0525 34° Northeast 298 343 11,200 1,220 Climbing Kansas City Center
Sat 03:14:12 PM 37.5900 -92.9869 35° Northeast 314 361 12,500 1,317 Climbing Kansas City Center
Sat 03:15:14 PM 37.6675 -92.9203 34° Northeast 326 375 13,900 1,355 Climbing Kansas City Center
Sat 03:16:16 PM 37.7456 -92.8508 35° Northeast 337 388 15,300 1,366 Climbing Kansas City Center
Sat 03:17:17 PM 37.8247 -92.7828 34° Northeast 341 392 16,700 1,366 Climbing Kansas City Center
Sat 03:18:19 PM 37.9089 -92.7089 35° Northeast 341 392 18,100 1,355 Climbing Kansas City Center
Sat 03:19:21 PM 37.9864 -92.6400 35° Northeast 340 391 19,500 1,317 Climbing Kansas City Center
Sat 03:20:22 PM 38.0650 -92.5717 34° Northeast 342 394 20,800 1,268 Climbing Kansas City Center
Sat 03:21:24 PM 38.1447 -92.5025 34° Northeast 345 397 22,100 1,258 Climbing Kansas City Center
Sat 03:22:26 PM 38.2397 -92.4183 35° Northeast 348 400 23,400 1,220 Climbing Kansas City Center
Sat 03:23:27 PM 38.3203 -92.3472 35° Northeast 349 402 24,600 780 Climbing Kansas City Center
Sat 03:24:29 PM 38.4014 -92.2742 35° Northeast 352 405 25,000 195 Climbing Kansas City Center
Sat 03:25:30 PM 38.4900 -92.1958 35° Northeast 368 423 25,000  Level Kansas City Center
Sat 03:26:32 PM 38.5825 -92.1122 35° Northeast 389 448 25,000  Level Kansas City Center
Sat 03:27:34 PM 38.6775 -92.0269 35° Northeast 404 465 25,000  Level Kansas City Center
Sat 03:28:35 PM 38.7744 -91.9394 35° Northeast 415 478 25,000  Level Kansas City Center
Sat 03:29:37 PM 38.8725 -91.8503 35° Northeast 424 488 25,000  Level Kansas City Center
Sat 03:30:38 PM 38.9717 -91.7606 35° Northeast 430 495 25,000  Level Kansas City Center
Sat 03:31:40 PM 39.0889 -91.6539 35° Northeast 434 499 25,000  Level Kansas City Center
Sat 03:32:42 PM 39.1892 -91.5603 36° Northeast 438 504 25,000  Level Kansas City Center
Sat 03:33:43 PM 39.2886 -91.4697 35° Northeast 439 505 25,000  Level Kansas City Center
Sat 03:34:45 PM 39.3869 -91.3792 35° Northeast 436 502 25,000  Level Kansas City Center
Sat 03:35:46 PM 39.4869 -91.2872 35° Northeast 437 503 25,000  Level Kansas City Center
Sat 03:36:48 PM 39.5864 -91.1931 36° Northeast 440 506 25,000  Level Kansas City Center
Sat 03:37:50 PM 39.6856 -91.1025 35° Northeast 438 504 25,000  Level Kansas City Center
Sat 03:38:51 PM 39.7906 -90.9989 37° Northeast 440 506 25,000  Level Kansas City Center
Sat 03:39:53 PM 39.8997 -90.8892 38° Northeast 440 506 25,000  Level Kansas City Center
Sat 03:40:54 PM 39.9967 -90.7908 38° Northeast 441 507 25,000  Level Kansas City Center
Sat 03:41:56 PM 40.0939 -90.6922 38° Northeast 442 509 25,000  Level Kansas City Center
Sat 03:42:58 PM 40.1919 -90.5928 38° Northeast 444 511 25,000  Level Kansas City Center
Sat 03:43:59 PM 40.2892 -90.4928 38° Northeast 444 511 25,000  Level Kansas City Center
Sat 03:45:01 PM 40.3881 -90.3919 38° Northeast 447 514 25,000  Level Kansas City Center
Sat 03:46:03 PM 40.4864 -90.2911 38° Northeast 447 514 25,000  Level Kansas City Center
Sat 03:47:04 PM 40.5828 -90.1908 38° Northeast 448 516 25,000  Level Kansas City Center
Sat 03:48:06 PM 40.6964 -90.0736 38° Northeast 439 505 25,000  Level Kansas City Center
Sat 03:49:21 PM 40.8136 -89.9539 38° Northeast 430 495 25,000  Level Chicago Center
Sat 03:50:22 PM 40.9061 -89.8569 38° Northeast 424 488 25,000  Level Chicago Center
Sat 03:51:24 PM 41.0022 -89.7553 39° Northeast 421 484 25,000  Level Chicago Center
Sat 03:52:26 PM 41.0942 -89.6589 38° Northeast 419 482 25,000 -48 Level Chicago Center
Sat 03:53:28 PM 41.1767 -89.5464 46° Northeast 424 488 24,900 -1,161 Descending Chicago Center
Sat 03:54:30 PM 41.2342 -89.4075 61° Northeast 428 493 22,600 -2,341 Descending Chicago Center
Sat 03:55:31 PM 41.2911 -89.2644 62° Northeast 435 501 20,100 -2,585 Descending Chicago Center
Sat 03:56:33 PM 41.3522 -89.1114 62° Northeast 421 484 17,300 -2,565 Descending Chicago Center
Sat 03:57:35 PM 41.4042 -88.9811 62° Northeast 403 464 14,800 -2,419 Descending Chicago Center
Sat 03:58:37 PM 41.4561 -88.8542 61° Northeast 394 453 12,300 -1,839 Descending Chicago Center
Sat 03:59:39 PM 41.5039 -88.7300 63° Northeast 381 438 11,000 -634 Descending Chicago Center
Sat 04:00:40 PM 41.5519 -88.6089 62° Northeast 372 428 11,000  Level Chicago Center
Sat 04:01:42 PM 41.6103 -88.4642 62° Northeast 369 425 11,000 -339 Level Chicago Center
Sat 04:02:44 PM 41.6717 -88.3569 53° Northeast 362 417 10,300 -774 Descending Chicago Center
Sat 04:03:46 PM 41.7272 -88.2636 51° Northeast 327 376 9,400 -1,122 Descending Chicago Center
Sat 04:04:47 PM 41.7781 -88.1775 52° Northeast 298 343 8,000 -878 Descending Chicago Center
Sat 04:05:49 PM 41.8242 -88.0961 53° Northeast 276 318 7,600 -484 Descending Chicago Center
Sat 04:06:51 PM 41.8661 -88.0217 53° Northeast 254 292 7,000 -293 Descending Chicago Center
Sat 04:07:52 PM 41.8844 -87.9361 74° East 250 288 7,000  Level Chicago Center
Sat 04:08:57 PM 41.8833 -87.8167 91° East 251 289 7,000 -403 Level Chicago TRACON
Sat 04:09:51 PM 41.8833 -87.7333 90° East 223 257 6,200 -1,222 Descending Chicago TRACON
Sat 04:10:45 PM 41.8833 -87.6667 90° East 219 252 4,800 -1,368 Descending Chicago TRACON
Sat 04:11:45 PM 41.9333 -87.6667 360° North 198 228 3,600 -900 Descending Chicago TRACON
Sat 04:12:45 PM 41.9667 -87.7167 312° West 183 211 3,000 -793 Descending Chicago TRACON
Sat 04:13:46 PM 41.9667 -87.7833 270° West 189 217 2,000 -887 Descending Chicago TRACON
Sat 04:14:40 PM 41.9667 -87.8333 270° West 143 165 1,300 -778 Descending Chicago TRACON
Sat 04:17:00 PM 41.9667 -87.9000 283° West  Level FlightAware Approximate

Login

Don't have an account? Register now (free) for customized features, flight alerts, and more!